Time;durP1;ratioP1;P1;durP2;ratioP2;P2;SDS_P1;SDS_P2;PMS_P1;PMS_P2;Temp;Humidity;BMP_temperature;BMP_pressure;BME280_temperature;BME280_humidity;BME280_pressure;Samples;Min_cycle;Max_cycle;Signal;HPM_P1;HPM_P2
2022/11/18 00:00:55;;;;;;;7.88;4.72;;;-5.10;96.30;;;;;;4988248;28;20037;-82
2022/11/18 00:03:20;;;;;;;7.47;5.53;;;-5.10;96.60;;;;;;4993698;28;20038;-85
2022/11/18 00:05:56;;;;;;;12.05;7.30;;;-5.10;96.50;;;;;;4990941;28;20472;-78
2022/11/18 00:08:24;;;;;;;9.40;5.50;;;-5.10;96.40;;;;;;4975060;28;20026;-80
2022/11/18 00:10:50;;;;;;;8.93;6.22;;;-5.20;96.30;;;;;;4989702;28;20027;-84
2022/11/18 00:16:10;;;;;;;8.27;5.18;;;-5.20;96.50;;;;;;4988324;28;20030;-80
2022/11/18 00:18:37;;;;;;;13.88;7.63;;;-5.10;96.50;;;;;;4993616;28;20029;-82
2022/11/18 00:21:05;;;;;;;13.57;5.88;;;-5.10;96.50;;;;;;4998384;28;20404;-79
2022/11/18 00:23:31;;;;;;;9.93;5.90;;;-5.00;96.60;;;;;;5000265;28;20042;-81
2022/11/18 00:26:10;;;;;;;7.30;4.57;;;-5.10;96.50;;;;;;4993392;28;20411;-80
2022/11/18 00:28:36;;;;;;;6.40;4.88;;;-5.10;96.40;;;;;;4993159;28;20039;-81
2022/11/18 00:31:08;;;;;;;7.22;4.65;;;-5.10;96.50;;;;;;5008927;28;20046;-82
2022/11/18 00:33:35;;;;;;;13.65;6.05;;;-5.10;96.60;;;;;;5014474;28;20033;-83
2022/11/18 00:36:02;;;;;;;;;;;-5.00;96.60;;;;;;5016551;28;20375;-82
2022/11/18 00:38:29;;;;;;;7.25;4.43;;;-5.00;96.50;;;;;;5012135;28;19906;-80
2022/11/18 00:41:02;;;;;;;9.77;6.10;;;-5.00;96.20;;;;;;5012947;28;20377;-81
2022/11/18 00:43:29;;;;;;;8.38;3.97;;;-5.00;95.90;;;;;;5013335;28;20041;-81
2022/11/18 00:45:55;;;;;;;7.78;4.65;;;-5.10;95.90;;;;;;5012656;28;20061;-81
2022/11/18 00:48:21;;;;;;;10.02;5.70;;;-5.10;95.90;;;;;;5012638;28;20025;-81
2022/11/18 00:50:52;;;;;;;9.75;6.05;;;-5.10;95.70;;;;;;5012647;28;20088;-82
2022/11/18 00:53:20;;;;;;;8.57;5.20;;;-5.20;95.60;;;;;;5013389;28;20025;-81
2022/11/18 00:55:46;;;;;;;6.63;4.40;;;-5.20;95.50;;;;;;5015594;28;20018;-81
2022/11/18 00:58:15;;;;;;;7.82;5.28;;;-5.20;95.70;;;;;;5018716;28;20494;-79
2022/11/18 01:00:42;;;;;;;8.98;6.13;;;-5.20;95.80;;;;;;5025759;28;20032;-78
2022/11/18 01:03:09;;;;;;;5.63;3.33;;;-5.10;95.80;;;;;;5019388;28;20021;-80
2022/11/18 01:05:35;;;;;;;5.70;4.25;;;-5.10;95.80;;;;;;5017390;28;20053;-80
2022/11/18 01:08:01;;;;;;;9.48;5.35;;;-5.20;95.90;;;;;;5014564;28;20072;-81
2022/11/18 01:10:27;;;;;;;8.45;5.05;;;-5.20;95.80;;;;;;5013206;28;20468;-81
2022/11/18 01:15:45;;;;;;;8.10;4.20;;;-5.10;95.90;;;;;;5012099;28;20072;-81
2022/11/18 01:18:10;;;;;;;8.13;5.95;;;-5.20;95.60;;;;;;5011899;28;20030;-82
2022/11/18 01:20:37;;;;;;;8.73;5.05;;;-5.20;95.50;;;;;;5011835;28;20075;-83
2022/11/18 01:23:03;;;;;;;6.32;4.03;;;-5.20;95.60;;;;;;5008408;28;20411;-82
2022/11/18 01:25:29;;;;;;;9.23;4.60;;;-5.20;95.70;;;;;;5013841;28;20026;-81
2022/11/18 01:27:55;;;;;;;11.55;5.55;;;-5.20;95.90;;;;;;5011829;28;20030;-83
2022/11/18 01:30:22;;;;;;;3.78;2.90;;;-5.20;96.00;;;;;;5015608;28;20046;-80
2022/11/18 01:32:48;;;;;;;10.68;5.47;;;-5.20;95.90;;;;;;5013562;28;20094;-80
2022/11/18 01:35:14;;;;;;;10.18;5.50;;;-5.20;96.00;;;;;;5021035;28;20108;-81
2022/11/18 01:37:39;;;;;;;8.05;4.82;;;-5.20;96.20;;;;;;5016309;28;20030;-82
2022/11/18 01:40:07;;;;;;;8.38;4.35;;;-5.20;96.20;;;;;;5013449;28;20022;-81
2022/11/18 01:42:34;;;;;;;11.25;6.05;;;-5.20;96.20;;;;;;5019086;28;20374;-81
2022/11/18 01:45:25;;;;;;;11.50;4.68;;;-5.10;96.10;;;;;;5017577;28;20030;-80
2022/11/18 01:47:59;;;;;;;6.97;4.35;;;-5.10;95.80;;;;;;5015437;28;20054;-80
2022/11/18 01:50:26;;;;;;;9.32;5.68;;;-5.10;95.70;;;;;;5015612;28;20105;-82
2022/11/18 01:53:01;;;;;;;11.65;5.30;;;-5.10;95.80;;;;;;5015083;28;20022;-83
2022/11/18 01:55:32;;;;;;;8.10;5.20;;;-5.10;95.70;;;;;;5015207;28;20077;-82
2022/11/18 01:58:11;;;;;;;8.88;5.40;;;-5.10;95.70;;;;;;5015137;28;20033;-81
2022/11/18 02:00:38;;;;;;;8.20;4.63;;;-5.10;95.90;;;;;;5023385;28;20487;-82
2022/11/18 02:03:04;;;;;;;9.23;4.32;;;-5.10;96.10;;;;;;5029840;28;20037;-82
2022/11/18 02:05:32;;;;;;;8.00;4.40;;;-5.10;96.00;;;;;;5026933;28;20022;-82
2022/11/18 02:08:00;;;;;;;9.43;5.50;;;-5.10;96.10;;;;;;5016239;28;20059;-82
2022/11/18 02:10:25;;;;;;;4.65;3.85;;;-5.10;95.80;;;;;;5015706;28;20112;-81
2022/11/18 02:12:53;;;;;;;9.45;4.95;;;-5.20;95.50;;;;;;5015647;28;20049;-83
2022/11/18 02:15:52;;;;;;;12.98;4.78;;;-5.20;95.60;;;;;;5016408;28;20383;-81
2022/11/18 02:18:32;;;;;;;9.65;6.28;;;-5.20;95.60;;;;;;4990237;28;20037;-82
2022/11/18 02:21:25;;;;;;;8.93;6.15;;;-5.10;95.60;;;;;;5015036;28;20029;-82
2022/11/18 02:24:14;;;;;;;9.27;5.05;;;-5.10;95.70;;;;;;5015410;28;20492;-82
2022/11/18 02:26:59;;;;;;;6.00;3.67;;;-5.10;95.80;;;;;;4964470;28;20482;-82
2022/11/18 02:29:32;;;;;;;9.80;5.45;;;-5.20;95.70;;;;;;5014691;28;20030;-82
2022/11/18 02:32:03;;;;;;;10.40;4.15;;;-5.20;95.70;;;;;;5014639;28;20042;-80
2022/11/18 02:34:49;;;;;;;7.70;6.03;;;-5.20;95.70;;;;;;5013270;28;20060;-81
2022/11/18 02:37:28;;;;;;;7.70;4.97;;;-5.20;95.40;;;;;;5013509;28;20036;-82
2022/11/18 02:39:55;;;;;;;6.50;4.20;;;-5.20;95.50;;;;;;5014741;28;20104;-82
2022/11/18 02:42:21;;;;;;;;;;;-5.20;95.70;;;;;;5007559;28;20450;-81
2022/11/18 02:44:52;;;;;;;7.78;4.10;;;-5.20;95.80;;;;;;5015412;28;19920;-82
2022/11/18 02:47:19;;;;;;;6.90;4.13;;;-5.20;95.80;;;;;;5015046;28;20033;-79
2022/11/18 02:49:50;;;;;;;;;;;-5.10;95.80;;;;;;5020709;28;20037;-79
2022/11/18 02:52:19;;;;;;;6.63;3.90;;;-5.10;95.90;;;;;;5019939;28;20004;-79
2022/11/18 02:54:48;;;;;;;7.90;4.40;;;-5.10;96.20;;;;;;5014459;28;20037;-80
2022/11/18 02:57:15;;;;;;;7.75;5.35;;;-5.10;96.20;;;;;;5014360;28;20025;-81
2022/11/18 02:59:41;;;;;;;4.82;3.83;;;-5.10;96.00;;;;;;5014182;28;20029;-80
2022/11/18 03:02:08;;;;;;;11.30;4.90;;;-5.10;95.90;;;;;;5013887;28;20036;-80
2022/11/18 03:04:34;;;;;;;10.25;4.72;;;-5.10;95.70;;;;;;5013593;28;20092;-80
2022/11/18 03:07:18;;;;;;;6.20;4.13;;;-5.10;95.90;;;;;;5013759;28;20453;-80
2022/11/18 03:09:48;;;;;;;9.73;5.97;;;-5.10;95.70;;;;;;5013633;28;20479;-80
2022/11/18 03:12:14;;;;;;;7.70;4.43;;;-5.10;95.70;;;;;;5013849;28;20156;-79
2022/11/18 03:15:23;;;;;;;8.43;5.55;;;-5.10;95.60;;;;;;5008276;28;20503;-80
2022/11/18 03:17:54;;;;;;;5.47;4.28;;;-5.20;95.50;;;;;;4911784;29;20052;-78
2022/11/18 03:20:39;;;;;;;11.00;4.53;;;-5.20;95.80;;;;;;4997720;28;20053;-81
2022/11/18 03:23:21;;;;;;;7.53;5.45;;;-5.20;95.90;;;;;;5016212;28;20110;-80
2022/11/18 03:25:58;;;;;;;9.73;5.05;;;-5.20;96.10;;;;;;5010015;28;20387;-80
2022/11/18 03:29:12;;;;;;;7.05;4.68;;;-5.10;96.20;;;;;;5015013;28;20022;-80
2022/11/18 03:31:42;;;;;;;10.55;5.20;;;-5.00;96.10;;;;;;4905844;29;20060;-81
2022/11/18 03:34:19;;;;;;;9.68;4.95;;;-5.00;95.90;;;;;;4896153;29;20076;-82
2022/11/18 03:36:49;;;;;;;7.47;4.57;;;-5.00;95.90;;;;;;4956444;28;20030;-82
2022/11/18 03:39:18;;;;;;;11.00;4.38;;;-5.10;95.70;;;;;;5013853;28;20025;-81
2022/11/18 03:42:22;;;;;;;8.93;5.57;;;-5.10;95.80;;;;;;5014083;28;20026;-81
2022/11/18 03:44:54;;;;;;;6.30;4.22;;;-5.10;95.70;;;;;;5004708;28;20419;-81
2022/11/18 03:47:31;;;;;;;8.80;6.40;;;-5.20;95.90;;;;;;5029180;28;20021;-82
2022/11/18 03:50:14;;;;;;;13.23;6.20;;;-5.20;96.00;;;;;;5000212;28;20037;-82
2022/11/18 03:52:41;;;;;;;7.45;5.63;;;-5.10;96.20;;;;;;5013809;28;20116;-81
2022/11/18 03:55:16;;;;;;;9.63;6.60;;;-5.10;96.10;;;;;;5012303;28;20026;-83
2022/11/18 03:58:31;;;;;;;7.97;5.18;;;-5.20;95.80;;;;;;5013227;28;20014;-82
2022/11/18 04:01:11;;;;;;;12.45;7.80;;;-5.20;96.30;;;;;;5004883;28;20030;-81
2022/11/18 04:03:37;;;;;;;7.35;5.88;;;-5.10;96.50;;;;;;5004766;28;20041;-83
2022/11/18 04:06:24;;;;;;;7.05;4.90;;;-5.10;96.50;;;;;;5013102;28;20018;-83
2022/11/18 04:08:54;;;;;;;11.40;5.28;;;-5.10;96.50;;;;;;5006919;28;20037;-83
2022/11/18 04:14:15;;;;;;;11.82;6.85;;;-5.00;96.50;;;;;;5013277;28;20044;-83
2022/11/18 04:16:42;;;;;;;6.13;5.10;;;-5.00;96.80;;;;;;5013455;28;20026;-81
2022/11/18 04:19:08;;;;;;;11.93;6.55;;;-5.00;96.30;;;;;;5012706;28;20033;-83
2022/11/18 04:21:34;;;;;;;7.70;4.88;;;-5.00;96.10;;;;;;5013002;28;20437;-83
2022/11/18 04:24:00;;;;;;;7.57;5.75;;;-5.00;95.90;;;;;;5012542;28;20034;-81
2022/11/18 04:26:25;;;;;;;9.50;5.45;;;-5.10;96.00;;;;;;5013467;28;20010;-83
2022/11/18 04:28:51;;;;;;;14.32;6.00;;;-5.00;96.20;;;;;;5013046;28;20076;-82
2022/11/18 04:31:17;;;;;;;14.55;5.40;;;-5.00;96.20;;;;;;5012163;28;20117;-82
2022/11/18 04:33:43;;;;;;;9.45;5.20;;;-5.00;96.20;;;;;;5012658;28;20017;-82
2022/11/18 04:36:09;;;;;;;9.90;6.10;;;-5.00;96.10;;;;;;5013068;28;20080;-83
2022/11/18 04:38:34;;;;;;;6.43;4.38;;;-5.00;96.20;;;;;;5014315;28;20037;-81
2022/11/18 04:41:00;;;;;;;7.93;5.07;;;-5.00;96.10;;;;;;5024081;28;20014;-82
2022/11/18 04:43:26;;;;;;;6.18;4.07;;;-5.00;96.10;;;;;;5016065;28;20046;-83
2022/11/18 04:45:52;;;;;;;8.50;4.78;;;-4.90;95.80;;;;;;5012585;28;20018;-84
2022/11/18 04:48:18;;;;;;;5.55;4.03;;;-4.90;95.70;;;;;;5012975;28;20022;-84
2022/11/18 04:50:50;;;;;;;9.40;4.75;;;-4.90;95.70;;;;;;5013416;28;20022;-83
2022/11/18 04:53:16;;;;;;;15.52;9.95;;;-4.90;95.90;;;;;;5002652;28;20022;-82
2022/11/18 04:55:42;;;;;;;8.60;5.45;;;-4.90;95.80;;;;;;5015792;28;20124;-83
2022/11/18 04:58:08;;;;;;;7.57;4.80;;;-4.90;95.70;;;;;;5020094;28;20018;-84
2022/11/18 05:00:34;;;;;;;7.25;4.93;;;-4.80;96.10;;;;;;5025691;28;20022;-82
2022/11/18 05:02:59;;;;;;;5.85;4.10;;;-4.90;95.80;;;;;;5014774;28;20097;-84
2022/11/18 05:05:25;;;;;;;8.45;5.03;;;-4.90;95.70;;;;;;5012801;28;20034;-81
2022/11/18 05:07:51;;;;;;;8.90;5.57;;;-4.90;95.60;;;;;;5012537;28;20022;-83
2022/11/18 05:10:17;;;;;;;5.95;3.88;;;-4.90;95.70;;;;;;5013082;28;20503;-82
2022/11/18 05:12:48;;;;;;;4.85;3.15;;;-4.90;95.80;;;;;;5018890;28;20033;-82
2022/11/18 05:15:15;;;;;;;7.63;4.90;;;-4.90;96.00;;;;;;5013842;28;20040;-83
2022/11/18 05:17:41;;;;;;;6.57;4.70;;;-4.90;96.10;;;;;;5010930;28;20026;-81
2022/11/18 05:20:08;;;;;;;7.50;5.82;;;-4.90;96.00;;;;;;5005446;28;20037;-82
2022/11/18 05:22:34;;;;;;;8.30;5.55;;;-4.90;95.90;;;;;;5012354;28;20021;-83
2022/11/18 05:25:00;;;;;;;8.32;4.78;;;-4.90;95.80;;;;;;5012630;28;20786;-81
2022/11/18 05:27:25;;;;;;;8.57;5.20;;;-4.90;95.90;;;;;;5017440;28;20053;-83
2022/11/18 05:29:51;;;;;;;5.53;3.85;;;-4.80;96.00;;;;;;5018324;28;20395;-83
2022/11/18 05:32:18;;;;;;;7.20;4.43;;;-4.80;95.80;;;;;;5013716;28;20014;-81
2022/11/18 05:34:43;;;;;;;8.60;5.82;;;-4.80;95.70;;;;;;5016435;28;20050;-80
2022/11/18 05:37:09;;;;;;;9.90;5.28;;;-4.80;95.70;;;;;;5020461;28;20025;-79
2022/11/18 05:39:35;;;;;;;8.50;4.43;;;-4.80;95.90;;;;;;5020863;28;20034;-80
2022/11/18 05:44:46;;;;;;;5.47;4.25;;;-4.80;95.80;;;;;;5012823;28;20052;-83
2022/11/18 05:47:12;;;;;;;6.18;4.47;;;-4.80;95.70;;;;;;5012487;28;20032;-83
2022/11/18 05:49:38;;;;;;;9.30;3.60;;;-4.80;95.70;;;;;;5010710;28;20026;-82
2022/11/18 05:52:04;;;;;;;7.38;5.05;;;-4.70;95.70;;;;;;5011649;28;20248;-81
2022/11/18 05:54:31;;;;;;;5.28;3.83;;;-4.70;95.60;;;;;;5007094;28;20455;-84
2022/11/18 05:57:05;;;;;;;7.32;3.63;;;-4.70;95.60;;;;;;5010643;28;20052;-82
2022/11/18 05:59:38;;;;;;;9.25;4.82;;;-4.70;95.40;;;;;;5012221;28;20121;-83
2022/11/18 06:02:10;;;;;;;8.50;4.78;;;-4.80;95.20;;;;;;5013583;28;20119;-83
2022/11/18 06:04:43;;;;;;;8.93;5.43;;;-4.80;95.30;;;;;;5012473;28;20034;-81
2022/11/18 06:07:26;;;;;;;11.13;5.90;;;-4.80;95.30;;;;;;4994096;28;20030;-82
2022/11/18 06:09:57;;;;;;;9.52;4.75;;;-4.80;95.60;;;;;;5010372;28;20080;-83
2022/11/18 06:12:28;;;;;;;5.60;4.38;;;-4.80;95.70;;;;;;5013809;28;20379;-82
2022/11/18 06:15:06;;;;;;;8.27;4.72;;;-4.70;95.70;;;;;;5015084;28;20364;-82
2022/11/18 06:17:47;;;;;;;7.90;4.97;;;-4.80;95.80;;;;;;5015314;28;20018;-82
2022/11/18 06:20:13;;;;;;;8.88;4.88;;;-4.70;95.80;;;;;;5014662;28;20014;-82
2022/11/18 06:22:41;;;;;;;8.70;5.45;;;-4.70;95.70;;;;;;5015489;28;20032;-82
2022/11/18 06:25:07;;;;;;;9.18;5.43;;;-4.70;95.60;;;;;;5014842;28;20117;-82
2022/11/18 06:27:34;;;;;;;6.63;4.72;;;-4.70;95.80;;;;;;5017053;28;20395;-81
2022/11/18 06:29:59;;;;;;;8.38;4.97;;;-4.60;95.80;;;;;;5023150;28;20034;-82
2022/11/18 06:32:25;;;;;;;10.63;5.60;;;-4.60;95.60;;;;;;5024956;28;20712;-79
2022/11/18 06:34:51;;;;;;;9.40;6.03;;;-4.60;95.70;;;;;;5016923;28;20391;-81
2022/11/18 06:37:21;;;;;;;13.30;7.55;;;-4.60;95.70;;;;;;5013848;28;20026;-83
2022/11/18 06:39:47;;;;;;;12.50;5.78;;;-4.60;95.70;;;;;;5015334;28;20018;-81
2022/11/18 06:45:01;;;;;;;8.18;4.85;;;-4.60;96.00;;;;;;5002824;28;20180;-83
2022/11/18 06:47:27;;;;;;;9.02;5.65;;;-4.60;96.00;;;;;;5012935;28;20545;-81
2022/11/18 06:49:53;;;;;;;9.10;4.57;;;-4.50;96.10;;;;;;5013341;28;20026;-83
2022/11/18 06:52:20;;;;;;;11.27;5.07;;;-4.50;95.80;;;;;;5014447;28;20088;-82
2022/11/18 06:54:46;;;;;;;10.93;6.75;;;-4.60;96.00;;;;;;5009502;28;20025;-82
2022/11/18 06:57:12;;;;;;;10.48;5.68;;;-4.60;96.00;;;;;;5013758;28;20049;-80
2022/11/18 06:59:37;;;;;;;11.50;4.47;;;-4.60;95.90;;;;;;5014348;28;20029;-82
2022/11/18 07:02:03;;;;;;;10.23;4.35;;;-4.50;95.80;;;;;;4998806;28;20022;-84
2022/11/18 07:04:29;;;;;;;10.57;5.13;;;-4.60;95.80;;;;;;5014693;28;20033;-82
2022/11/18 07:06:56;;;;;;;7.68;4.65;;;-4.50;95.90;;;;;;5014710;28;20076;-83
2022/11/18 07:09:22;;;;;;;7.85;4.88;;;-4.50;95.70;;;;;;5017337;28;20025;-84
2022/11/18 07:11:48;;;;;;;8.75;5.72;;;-4.50;95.70;;;;;;5021897;28;20022;-84
2022/11/18 07:14:14;;;;;;;7.88;5.90;;;-4.50;95.60;;;;;;5014235;28;20084;-81
2022/11/18 07:16:40;;;;;;;9.35;5.00;;;-4.50;95.60;;;;;;5014969;28;20458;-82
2022/11/18 07:19:11;;;;;;;17.42;6.53;;;-4.50;95.80;;;;;;5012584;28;20033;-83
2022/11/18 07:21:37;;;;;;;12.75;4.10;;;-4.50;95.60;;;;;;4995317;28;20033;-81
2022/11/18 07:24:06;;;;;;;9.05;4.97;;;-4.50;95.70;;;;;;5013536;28;20061;-83
2022/11/18 07:26:32;;;;;;;9.40;5.85;;;-4.50;96.10;;;;;;5012366;28;20050;-84
2022/11/18 07:28:58;;;;;;;8.02;5.13;;;-4.50;96.30;;;;;;5013602;28;20028;-84
2022/11/18 07:31:24;;;;;;;7.07;4.15;;;-4.50;96.10;;;;;;5013812;28;20125;-82
2022/11/18 07:33:53;;;;;;;8.00;4.88;;;-4.50;95.80;;;;;;5013289;28;20129;-84
2022/11/18 07:36:22;;;;;;;10.63;5.57;;;-4.40;95.60;;;;;;5014152;28;20110;-83
2022/11/18 07:38:48;;;;;;;7.05;4.47;;;-4.40;95.40;;;;;;5013421;28;20022;-84
2022/11/18 07:41:16;;;;;;;10.07;4.68;;;-4.50;95.60;;;;;;5013808;28;20018;-84
2022/11/18 07:43:43;;;;;;;10.90;5.97;;;-4.40;95.80;;;;;;5014419;28;20513;-82
2022/11/18 07:46:31;;;;;;;8.93;6.32;;;-4.40;95.70;;;;;;5014548;28;20340;-83
2022/11/18 07:48:58;;;;;;;7.85;5.03;;;-4.40;96.00;;;;;;5014946;28;20034;-82
2022/11/18 07:51:27;;;;;;;14.60;11.27;;;-4.40;96.30;;;;;;5015097;28;20094;-82
2022/11/18 07:53:53;;;;;;;10.90;6.10;;;-4.30;96.40;;;;;;5016296;28;20037;-83
2022/11/18 07:56:19;;;;;;;8.95;5.68;;;-4.20;96.20;;;;;;5016156;28;20021;-83
2022/11/18 07:58:46;;;;;;;11.27;5.80;;;-4.20;96.00;;;;;;5019749;28;20036;-80
2022/11/18 08:01:17;;;;;;;12.52;7.15;;;-4.10;96.00;;;;;;5003573;28;20037;-81
2022/11/18 08:03:44;;;;;;;7.47;5.43;;;-4.00;96.00;;;;;;5013722;28;20091;-81
2022/11/18 08:06:12;;;;;;;9.98;5.97;;;-4.00;96.00;;;;;;5013313;28;20026;-83
2022/11/18 08:08:38;;;;;;;11.07;5.53;;;-3.90;96.00;;;;;;5013727;28;20026;-83
2022/11/18 08:11:08;;;;;;;8.43;6.35;;;-3.90;96.10;;;;;;5014057;28;20076;-83
2022/11/18 08:13:34;;;;;;;8.05;5.40;;;-3.90;95.80;;;;;;5014240;28;20415;-83
2022/11/18 08:16:03;;;;;;;8.02;5.15;;;-3.80;95.70;;;;;;5014749;28;20029;-82
2022/11/18 08:18:30;;;;;;;9.88;5.97;;;-3.80;95.50;;;;;;5000293;28;20030;-82
2022/11/18 08:21:04;;;;;;;9.30;5.78;;;-3.80;95.00;;;;;;5014890;28;20025;-82
2022/11/18 08:23:30;;;;;;;9.43;4.70;;;-3.80;94.70;;;;;;5026432;23;20161;-81
2022/11/18 08:26:09;;;;;;;6.70;4.85;;;-3.80;95.00;;;;;;5012207;28;20037;-84
2022/11/18 08:28:35;;;;;;;6.75;5.82;;;-3.90;94.70;;;;;;4996204;28;20109;-82
2022/11/18 08:31:25;;;;;;;8.88;4.80;;;-3.90;94.50;;;;;;4999360;28;20119;-80
2022/11/18 08:33:59;;;;;;;6.18;4.72;;;-4.00;94.30;;;;;;5013007;28;20092;-84
2022/11/18 08:36:28;;;;;;;10.75;5.50;;;-4.10;94.50;;;;;;5013104;28;20028;-84
2022/11/18 08:38:56;;;;;;;10.07;5.05;;;-4.00;95.00;;;;;;5013241;28;20525;-84
2022/11/18 08:41:31;;;;;;;11.45;6.30;;;-4.00;95.20;;;;;;5013627;28;20037;-83
2022/11/18 08:43:57;;;;;;;9.10;4.45;;;-3.90;95.20;;;;;;4996648;28;20581;-84
2022/11/18 08:46:22;;;;;;;9.88;6.07;;;-3.80;95.10;;;;;;4997885;28;20026;-82
2022/11/18 08:48:48;;;;;;;7.53;4.90;;;-3.80;95.10;;;;;;5015253;28;20026;-82
2022/11/18 08:51:14;;;;;;;8.93;6.05;;;-3.80;95.00;;;;;;5000109;28;20057;-83
2022/11/18 08:53:41;;;;;;;9.57;5.38;;;-3.80;94.80;;;;;;5021839;28;20030;-83
2022/11/18 08:56:14;;;;;;;8.90;4.68;;;-3.70;94.90;;;;;;5013806;28;20466;-83
2022/11/18 08:58:41;;;;;;;6.25;4.40;;;-3.70;95.00;;;;;;4996934;28;20023;-83
2022/11/18 09:01:08;;;;;;;7.80;5.03;;;-3.60;94.90;;;;;;5007479;28;20041;-83
2022/11/18 09:03:34;;;;;;;9.00;6.20;;;-3.60;94.80;;;;;;4995685;28;20045;-83
2022/11/18 09:06:10;;;;;;;9.23;4.55;;;-3.60;94.60;;;;;;5012956;28;20033;-83
2022/11/18 09:08:39;;;;;;;7.78;5.07;;;-3.60;94.50;;;;;;4984713;28;20034;-83
2022/11/18 09:11:08;;;;;;;10.02;6.13;;;-3.60;94.60;;;;;;4996745;28;20042;-83
2022/11/18 09:13:34;;;;;;;8.38;5.65;;;-3.60;94.80;;;;;;5000107;28;20030;-82
2022/11/18 09:16:00;;;;;;;9.00;6.05;;;-3.60;95.10;;;;;;5000584;28;20027;-85
2022/11/18 09:18:27;;;;;;;8.63;6.82;;;-3.60;94.80;;;;;;5010591;28;20034;-84
2022/11/18 09:20:57;;;;;;;9.82;5.63;;;-3.70;94.50;;;;;;5012329;28;20502;-83
2022/11/18 09:23:24;;;;;;;9.73;6.38;;;-3.70;94.80;;;;;;4991314;28;20129;-83
2022/11/18 09:25:59;;;;;;;7.68;5.50;;;-3.60;94.60;;;;;;4992215;28;20125;-83
2022/11/18 09:28:26;;;;;;;6.75;5.00;;;-3.60;94.60;;;;;;4995407;28;20027;-84
2022/11/18 09:30:51;;;;;;;10.32;6.53;;;-3.60;94.50;;;;;;4999398;28;20042;-83
2022/11/18 09:33:17;;;;;;;7.95;5.80;;;-3.60;94.50;;;;;;4999226;28;20030;-82
2022/11/18 09:35:44;;;;;;;13.40;7.57;;;-3.70;94.70;;;;;;5000899;28;20082;-82
2022/11/18 09:38:10;;;;;;;9.60;5.30;;;-3.60;94.60;;;;;;4999483;28;20030;-83
2022/11/18 09:41:01;;;;;;;7.60;5.45;;;-3.70;94.60;;;;;;4992445;28;20041;-81
2022/11/18 09:43:49;;;;;;;11.25;6.57;;;-3.60;94.70;;;;;;4992444;28;20435;-83
2022/11/18 09:46:34;;;;;;;11.43;6.85;;;-3.60;94.70;;;;;;4993707;28;20503;-83
2022/11/18 09:49:13;;;;;;;8.90;5.88;;;-3.70;94.70;;;;;;4997207;28;20030;-82
2022/11/18 09:51:42;;;;;;;7.78;5.88;;;-3.70;94.80;;;;;;4997245;28;20057;-82
2022/11/18 09:54:27;;;;;;;7.78;5.20;;;-3.70;94.90;;;;;;4997125;28;20052;-84
2022/11/18 09:56:54;;;;;;;9.65;5.43;;;-3.70;94.90;;;;;;4985495;28;20134;-84
2022/11/18 09:59:21;;;;;;;;;;;-3.60;95.10;;;;;;4995426;28;20183;-85
2022/11/18 10:01:48;;;;;;;;;;;-3.60;94.80;;;;;;4997179;28;19906;-83
2022/11/18 10:04:16;;;;;;;10.10;6.07;;;-3.70;94.80;;;;;;4997533;28;19920;-84
2022/11/18 10:06:46;;;;;;;8.85;4.97;;;-3.70;94.70;;;;;;4997567;28;20030;-84
2022/11/18 10:09:33;;;;;;;8.77;5.60;;;-3.70;94.80;;;;;;5005506;28;20022;-81
2022/11/18 10:12:26;;;;;;;7.63;5.93;;;-3.70;95.00;;;;;;5013733;28;20129;-81
2022/11/18 10:15:37;;;;;;;9.00;5.45;;;-3.60;94.90;;;;;;5012794;28;20027;-80
2022/11/18 10:18:19;;;;;;;7.63;5.35;;;-3.60;95.10;;;;;;4996245;28;20118;-83
2022/11/18 10:20:59;;;;;;;11.88;6.97;;;-3.60;95.00;;;;;;4998962;28;20030;-84
2022/11/18 10:23:52;;;;;;;9.30;7.22;;;-3.50;94.80;;;;;;4995878;28;20463;-84
2022/11/18 10:26:39;;;;;;;7.05;5.20;;;-3.60;94.70;;;;;;4997127;28;20384;-83
2022/11/18 10:29:09;;;;;;;8.32;4.70;;;-3.50;94.80;;;;;;4995709;28;20057;-83
2022/11/18 10:31:51;;;;;;;9.50;6.93;;;-3.50;94.60;;;;;;4996388;28;20022;-84
2022/11/18 10:34:18;;;;;;;7.53;5.43;;;-3.60;94.50;;;;;;5002527;28;20026;-83
2022/11/18 10:37:06;;;;;;;8.85;5.20;;;-3.50;94.70;;;;;;5004851;28;20030;-84
2022/11/18 10:39:32;;;;;;;14.68;6.40;;;-3.50;94.70;;;;;;4996003;28;20380;-84
2022/11/18 10:42:22;;;;;;;8.40;5.70;;;-3.40;94.60;;;;;;4995493;28;20018;-85
2022/11/18 10:44:48;;;;;;;9.18;6.68;;;-3.40;94.20;;;;;;4995434;28;20369;-83
2022/11/18 10:47:28;;;;;;;5.65;4.60;;;-3.50;94.00;;;;;;4995584;28;20029;-84
2022/11/18 10:50:21;;;;;;;10.15;5.82;;;-3.60;94.20;;;;;;4995441;28;20022;-84
2022/11/18 10:52:53;;;;;;;13.30;6.68;;;-3.60;94.60;;;;;;4993843;28;20030;-85
2022/11/18 10:55:22;;;;;;;9.13;6.70;;;-3.60;94.80;;;;;;4997272;28;20101;-84
2022/11/18 10:57:52;;;;;;;8.70;5.75;;;-3.60;94.70;;;;;;5000576;28;20062;-85
2022/11/18 11:00:45;;;;;;;7.82;6.20;;;-3.60;94.60;;;;;;4999434;28;20029;-85
2022/11/18 11:03:20;;;;;;;10.15;7.05;;;-3.60;94.90;;;;;;4995392;28;20061;-85
2022/11/18 11:05:49;;;;;;;9.35;6.20;;;-3.70;95.10;;;;;;4995404;28;20026;-83
2022/11/18 11:08:22;;;;;;;12.88;7.20;;;-3.70;95.20;;;;;;4995471;28;20015;-84
2022/11/18 11:10:58;;;;;;;10.02;6.93;;;-3.70;95.10;;;;;;4995360;28;20026;-85
2022/11/18 11:13:29;;;;;;;9.73;7.35;;;-3.70;95.20;;;;;;4993671;28;20407;-85
2022/11/18 11:16:03;;;;;;;19.90;8.05;;;-3.60;95.20;;;;;;4995041;28;20089;-83
2022/11/18 11:18:42;;;;;;;8.35;6.18;;;-3.50;95.20;;;;;;4995182;28;20026;-85
2022/11/18 11:21:31;;;;;;;15.75;5.32;;;-3.50;94.90;;;;;;4994431;28;20412;-84
2022/11/18 11:23:57;;;;;;;9.80;4.90;;;-3.50;94.80;;;;;;4951835;29;20142;-86
2022/11/18 11:26:29;;;;;;;11.63;6.75;;;-3.60;95.00;;;;;;4947131;29;20038;-85
2022/11/18 11:29:09;;;;;;;11.77;7.22;;;-3.70;95.10;;;;;;4955226;28;20046;-84
2022/11/18 11:31:43;;;;;;;11.95;7.80;;;-3.70;95.30;;;;;;4955053;29;20028;-86
2022/11/18 11:34:30;;;;;;;11.07;6.53;;;-3.70;95.30;;;;;;4955437;28;20031;-83
2022/11/18 11:37:14;;;;;;;10.27;6.05;;;-3.70;95.20;;;;;;4954007;29;20523;-85
2022/11/18 11:39:46;;;;;;;9.63;6.03;;;-3.60;95.30;;;;;;4954102;29;20043;-84
2022/11/18 11:42:26;;;;;;;8.95;6.00;;;-3.70;95.20;;;;;;4954238;29;20043;-84
2022/11/18 11:45:22;;;;;;;8.18;5.57;;;-3.70;95.10;;;;;;4937520;29;20039;-85
2022/11/18 11:48:07;;;;;;;9.20;6.27;;;-3.70;95.20;;;;;;4955082;29;20031;-85
2022/11/18 11:50:52;;;;;;;12.77;6.90;;;-3.70;95.10;;;;;;4937873;29;20113;-83
2022/11/18 11:53:42;;;;;;;11.02;8.25;;;-3.60;95.30;;;;;;4955500;29;20023;-83
2022/11/18 11:56:14;;;;;;;9.98;7.72;;;-3.60;95.10;;;;;;4952332;29;20030;-84
2022/11/18 11:59:07;;;;;;;9.95;6.38;;;-3.70;95.00;;;;;;4954527;28;20055;-81
2022/11/18 12:01:36;;;;;;;15.45;6.57;;;-3.70;95.10;;;;;;4983884;28;20034;-83
2022/11/18 12:04:22;;;;;;;13.50;6.82;;;-3.70;95.20;;;;;;4995953;28;20045;-82
2022/11/18 12:06:52;;;;;;;8.73;6.75;;;-3.70;95.30;;;;;;5000303;28;20034;-81
2022/11/18 12:09:45;;;;;;;11.65;6.80;;;-3.70;95.10;;;;;;4996598;28;20022;-82
2022/11/18 12:12:35;;;;;;;10.07;6.53;;;-3.70;95.30;;;;;;4982421;28;20464;-83
2022/11/18 12:15:38;;;;;;;17.05;7.35;;;-3.70;95.20;;;;;;4996296;28;20146;-83
2022/11/18 12:18:31;;;;;;;11.23;6.22;;;-3.70;95.30;;;;;;5004368;28;20089;-84
2022/11/18 12:20:57;;;;;;;9.25;7.53;;;-3.70;95.20;;;;;;4975149;28;20520;-81
2022/11/18 12:23:31;;;;;;;12.98;7.43;;;-3.70;95.30;;;;;;4995597;28;20046;-84
2022/11/18 12:26:05;;;;;;;10.63;6.88;;;-3.70;95.50;;;;;;5004223;28;20030;-81
2022/11/18 12:28:39;;;;;;;8.07;6.28;;;-3.70;95.40;;;;;;5012435;28;20053;-82
2022/11/18 12:31:17;;;;;;;9.98;6.47;;;-3.70;95.20;;;;;;5004473;28;20026;-84
2022/11/18 12:33:58;;;;;;;9.82;6.70;;;-3.70;95.00;;;;;;4998065;28;20019;-82
2022/11/18 12:36:40;;;;;;;9.43;5.97;;;-3.70;94.70;;;;;;4996249;28;20026;-84
2022/11/18 12:39:45;;;;;;;15.48;7.32;;;-3.80;94.80;;;;;;4994624;28;20032;-82
2022/11/18 12:45:41;;;;;;;10.10;7.60;;;-3.80;95.10;;;;;;4993627;28;20072;-83
2022/11/18 12:48:26;;;;;;;15.50;8.90;;;-3.80;95.10;;;;;;4992954;28;20018;-82
2022/11/18 12:50:57;;;;;;;11.25;7.40;;;-3.80;95.30;;;;;;4992614;28;20094;-83
2022/11/18 12:53:38;;;;;;;12.02;7.57;;;-3.80;95.50;;;;;;4993456;28;20027;-83
2022/11/18 12:56:18;;;;;;;14.95;9.07;;;-3.70;95.60;;;;;;4993228;28;20053;-84
2022/11/18 12:58:57;;;;;;;13.90;7.28;;;-3.70;95.60;;;;;;4991777;28;20065;-84
2022/11/18 13:01:26;;;;;;;15.05;7.40;;;-3.70;95.70;;;;;;4992951;28;20030;-83
2022/11/18 13:04:04;;;;;;;12.73;7.25;;;-3.70;95.60;;;;;;4993327;28;20035;-84
2022/11/18 13:06:33;;;;;;;9.13;6.40;;;-3.70;95.60;;;;;;4993307;28;20454;-84
2022/11/18 13:09:04;;;;;;;11.75;7.32;;;-3.70;95.40;;;;;;4993060;28;20022;-84
2022/11/18 13:12:18;;;;;;;14.02;7.18;;;-3.70;95.50;;;;;;4993187;28;20502;-83
2022/11/18 13:20:32;;;;;;;8.45;5.97;;;-3.70;95.60;;;;;;4992797;28;20130;-85
2022/11/18 13:26:22;;;;;;;9.70;6.93;;;-3.70;95.50;;;;;;4997116;28;20053;-84
2022/11/18 13:29:16;;;;;;;9.82;7.20;;;-3.80;95.30;;;;;;4996698;28;20011;-84
2022/11/18 13:34:51;;;;;;;12.32;8.68;;;-3.90;95.10;;;;;;4997870;28;20026;-84
2022/11/18 13:37:50;;;;;;;14.30;9.15;;;-3.90;95.10;;;;;;4995993;28;20026;-85
2022/11/18 13:40:28;;;;;;;12.43;6.90;;;-3.90;95.10;;;;;;4996872;28;20022;-84
2022/11/18 13:42:55;;;;;;;9.93;5.88;;;-3.90;95.40;;;;;;4996665;28;20427;-83